createdAt,value
2023-04-12T04:00:32.916Z,4.47
2023-04-12T04:03:36.578Z,5.05
2023-04-12T04:06:39.735Z,4.00
2023-04-12T04:09:43.153Z,4.37
2023-04-12T04:12:46.001Z,3.58
2023-04-12T04:15:58.603Z,2.90
2023-04-12T04:19:03.103Z,3.65
2023-04-12T04:22:06.573Z,3.28
2023-04-12T04:25:09.666Z,3.40
2023-04-12T04:28:12.954Z,3.70
2023-04-12T04:31:17.493Z,4.12
2023-04-12T04:34:23.259Z,4.25
2023-04-12T04:37:28.060Z,4.10
2023-04-12T04:40:32.688Z,4.47
2023-04-12T04:43:39.819Z,4.03
2023-04-12T04:46:43.108Z,4.03
2023-04-12T04:49:45.682Z,3.45
2023-04-12T04:52:52.718Z,3.20
2023-04-12T04:55:59.761Z,3.62
2023-04-12T04:59:03.083Z,3.50
2023-04-12T05:02:06.118Z,2.87
2023-04-12T05:05:16.004Z,3.22
2023-04-12T05:08:19.124Z,2.90
2023-04-12T05:11:23.917Z,2.90
2023-04-12T05:14:37.702Z,3.25
2023-04-12T05:17:47.513Z,3.03
2023-04-12T05:20:50.952Z,2.70
2023-04-12T05:23:53.847Z,2.45
2023-04-12T05:26:56.655Z,3.53
2023-04-12T05:29:59.723Z,3.40
2023-04-12T05:33:02.387Z,2.47
2023-04-12T05:36:06.096Z,2.83
2023-04-12T05:39:08.660Z,2.95
2023-04-12T05:42:11.899Z,2.90
2023-04-12T05:45:14.778Z,2.33
2023-04-12T05:48:18.820Z,2.42
2023-04-12T05:51:34.062Z,2.20
2023-04-12T05:54:43.281Z,2.35
2023-04-12T05:57:46.888Z,3.03
2023-04-12T06:00:51.349Z,2.55
2023-04-12T06:03:54.243Z,1.80
2023-04-12T06:06:56.685Z,2.90
2023-04-12T06:09:59.694Z,1.80
2023-04-12T06:13:02.782Z,2.45
2023-04-12T06:16:06.812Z,2.20
2023-04-12T06:19:11.024Z,2.95
2023-04-12T06:22:13.902Z,2.42
2023-04-12T06:25:16.738Z,2.72
2023-04-12T06:28:20.631Z,2.35
2023-04-12T06:31:23.465Z,2.73
2023-04-12T06:34:26.511Z,2.62
2023-04-12T06:37:29.244Z,2.53
2023-04-12T06:40:32.155Z,2.58
2023-04-12T06:43:34.871Z,2.58
2023-04-12T06:46:37.853Z,2.72
2023-04-12T06:49:40.393Z,2.30
2023-04-12T06:52:43.211Z,2.83
2023-04-12T06:55:45.536Z,2.30
2023-04-12T06:58:48.278Z,2.40
2023-04-12T07:01:51.868Z,1.80
2023-04-12T07:04:54.674Z,2.00
2023-04-12T07:07:57.262Z,2.62
2023-04-12T07:11:08.624Z,2.10
2023-04-12T07:14:20.622Z,2.08
2023-04-12T07:17:24.269Z,2.80
2023-04-12T07:20:27.095Z,2.33
2023-04-12T07:23:30.763Z,2.53
2023-04-12T07:29:36.139Z,3.00
2023-04-12T07:32:38.713Z,3.00
2023-04-12T07:35:41.464Z,2.23
2023-04-12T07:38:43.849Z,2.53
2023-04-12T07:41:48.354Z,2.43
2023-04-12T07:44:50.799Z,2.62
2023-04-12T07:47:53.912Z,2.10
2023-04-12T07:50:56.656Z,2.45
2023-04-12T07:53:59.747Z,2.50
2023-04-12T07:57:03.541Z,2.15
2023-04-12T08:00:07.541Z,2.53
2023-04-12T08:03:17.068Z,2.92
2023-04-12T08:06:20.010Z,2.87
2023-04-12T08:09:23.525Z,3.20
2023-04-12T08:12:27.182Z,1.60
2023-04-12T08:15:29.783Z,2.43
2023-04-12T08:18:33.153Z,2.22
2023-04-12T08:21:35.687Z,2.12
2023-04-12T08:24:38.342Z,3.03
2023-04-12T08:27:44.056Z,2.28
2023-04-12T08:30:50.966Z,2.08
2023-04-12T08:33:53.286Z,2.93
2023-04-12T08:36:55.945Z,2.13
2023-04-12T08:40:04.695Z,2.40
2023-04-12T08:43:11.393Z,3.67
2023-04-12T08:46:17.839Z,2.37
2023-04-12T08:49:22.823Z,2.20
2023-04-12T08:52:25.448Z,1.77
2023-04-12T08:55:28.290Z,2.65
2023-04-12T08:58:31.730Z,3.35
2023-04-12T09:01:34.277Z,5.30
2023-04-12T09:04:50.684Z,3.60
2023-04-12T09:07:53.384Z,3.80
2023-04-12T09:10:56.046Z,2.27
2023-04-12T09:13:59.340Z,2.85
2023-04-12T09:17:02.166Z,2.42
2023-04-12T09:20:17.252Z,4.10
2023-04-12T09:23:26.651Z,2.55
2023-04-12T09:26:30.268Z,2.65
2023-04-12T09:29:36.624Z,2.15
2023-04-12T09:32:39.349Z,2.50
2023-04-12T09:35:42.974Z,2.47
2023-04-12T09:39:01.173Z,3.85
2023-04-12T09:42:25.563Z,2.67
2023-04-12T09:45:36.126Z,7.20
2023-04-12T09:48:40.401Z,2.15
2023-04-12T09:51:43.149Z,1.87
2023-04-12T09:54:48.052Z,2.47
2023-04-12T09:57:52.670Z,2.28
2023-04-12T10:00:59.974Z,4.20
2023-04-12T10:04:05.819Z,1.80
2023-04-12T10:07:13.202Z,1.70
2023-04-12T10:10:19.325Z,2.00
2023-04-12T10:13:23.575Z,2.15
2023-04-12T10:16:27.677Z,2.22
2023-04-12T10:19:33.464Z,2.50
2023-04-12T10:22:42.652Z,2.22
2023-04-12T10:25:48.245Z,2.20
2023-04-12T10:29:26.493Z,2.53
2023-04-12T10:32:28.914Z,2.87
2023-04-12T10:35:51.224Z,2.22
2023-04-12T10:39:09.943Z,2.20
2023-04-12T10:42:16.655Z,1.87
2023-04-12T10:45:35.310Z,2.08
2023-04-12T10:48:57.095Z,2.17
2023-04-12T10:52:09.155Z,2.53
2023-04-12T10:55:30.074Z,1.95
2023-04-12T10:58:50.740Z,1.87
2023-04-12T11:02:13.087Z,1.90
2023-04-12T11:05:19.160Z,2.45
2023-04-12T11:08:23.906Z,2.05
2023-04-12T11:11:28.113Z,2.78
2023-04-12T11:14:38.170Z,2.47
2023-04-12T11:17:40.582Z,2.28
2023-04-12T11:20:44.373Z,2.65
2023-04-12T11:23:48.898Z,2.50
2023-04-12T11:26:56.239Z,2.20
2023-04-12T11:30:02.805Z,2.83
2023-04-12T11:33:08.452Z,2.50
2023-04-12T11:36:13.199Z,3.08
2023-04-12T11:39:17.077Z,2.00
2023-04-12T11:42:22.717Z,2.17
2023-04-12T11:45:26.998Z,2.03
2023-04-12T11:48:30.498Z,1.90
2023-04-12T11:51:33.759Z,2.62
2023-04-12T11:54:36.302Z,1.80
2023-04-12T11:57:39.562Z,2.08
2023-04-12T12:00:44.364Z,2.95
2023-04-12T12:03:48.443Z,2.03
2023-04-12T12:06:51.654Z,2.03
2023-04-12T12:13:01.100Z,2.33
2023-04-12T12:16:08.174Z,1.45
2023-04-12T12:19:10.980Z,1.85
2023-04-12T12:22:15.293Z,1.37
2023-04-12T12:25:19.108Z,1.73
2023-04-12T12:28:24.471Z,2.05
2023-04-12T12:31:28.593Z,2.17
2023-04-12T12:34:34.452Z,1.50
2023-04-12T12:37:48.184Z,1.50
2023-04-12T12:40:50.978Z,1.60
2023-04-12T12:43:53.574Z,1.73
2023-04-12T12:50:03.474Z,1.98
2023-04-12T12:53:06.665Z,1.52
2023-04-12T12:56:13.682Z,2.03
2023-04-12T12:59:16.331Z,1.92
2023-04-12T13:02:19.931Z,1.77
2023-04-12T13:05:23.418Z,1.90
2023-04-12T13:08:26.752Z,1.65
2023-04-12T13:11:29.446Z,1.60
2023-04-12T13:14:31.783Z,2.40
2023-04-12T13:17:34.426Z,4.90
2023-04-12T13:20:36.777Z,1.53
2023-04-12T13:23:39.490Z,1.90
2023-04-12T13:26:43.250Z,2.80
2023-04-12T13:29:46.019Z,1.45
2023-04-12T13:32:48.540Z,1.47
2023-04-12T13:35:51.546Z,0.77
2023-04-12T13:38:54.107Z,1.17
2023-04-12T13:41:56.742Z,1.33
2023-04-12T13:44:59.257Z,1.15
2023-04-12T13:48:02.283Z,2.10
2023-04-12T13:51:05.111Z,1.48
2023-04-12T13:54:07.850Z,1.98
2023-04-12T13:57:10.279Z,0.90
2023-04-12T14:00:13.484Z,1.05
2023-04-12T14:03:16.525Z,1.20
2023-04-12T14:06:19.023Z,1.47
2023-04-12T14:09:29.438Z,1.12
2023-04-12T14:12:31.783Z,1.00
2023-04-12T14:15:34.343Z,1.10
2023-04-12T14:18:36.920Z,1.70
2023-04-12T14:21:39.519Z,1.08
2023-04-12T14:24:41.802Z,1.10
2023-04-12T14:27:44.748Z,1.23
2023-04-12T14:30:50.470Z,1.45
2023-04-12T14:33:53.803Z,1.15
2023-04-12T14:36:56.377Z,1.42
2023-04-12T14:39:59.284Z,1.12
2023-04-12T14:43:01.776Z,1.40
2023-04-12T14:46:04.619Z,1.48
2023-04-12T14:49:07.186Z,1.40
2023-04-12T14:52:09.816Z,1.85
2023-04-12T14:55:12.125Z,1.25
2023-04-12T14:58:14.918Z,1.10
2023-04-12T15:01:18.445Z,1.27
2023-04-12T15:04:21.403Z,1.15
2023-04-12T15:07:23.872Z,1.40
2023-04-12T15:10:26.701Z,1.45
2023-04-12T15:13:33.548Z,1.57
2023-04-12T15:16:38.215Z,1.30
2023-04-12T15:19:41.260Z,1.20
2023-04-12T15:22:44.348Z,1.55
2023-04-12T15:25:47.496Z,1.42
2023-04-12T15:28:50.148Z,1.80
2023-04-12T15:31:52.578Z,1.37
2023-04-12T15:35:01.374Z,2.17
2023-04-12T15:38:06.904Z,1.50
2023-04-12T15:41:09.809Z,3.08
2023-04-12T15:44:13.362Z,1.45
2023-04-12T15:47:16.140Z,1.70
2023-04-12T15:50:19.243Z,1.67
2023-04-12T15:53:24.525Z,1.75
2023-04-12T15:56:27.443Z,2.03
2023-04-12T16:02:33.907Z,2.03
2023-04-12T16:08:39.015Z,2.17
2023-04-12T16:11:43.637Z,2.28
2023-04-12T16:14:46.018Z,1.85
2023-04-12T16:17:53.195Z,2.20
2023-04-12T16:20:55.639Z,1.87
2023-04-12T16:23:58.571Z,1.60
2023-04-12T16:27:00.872Z,2.28
2023-04-12T16:30:05.695Z,2.67
2023-04-12T16:33:09.627Z,2.20
2023-04-12T16:36:12.348Z,2.03
2023-04-12T16:39:14.733Z,2.27
2023-04-12T16:42:17.386Z,2.35
2023-04-12T16:45:21.600Z,2.40
2023-04-12T16:48:25.195Z,2.15
2023-04-12T16:51:37.060Z,2.33
2023-04-12T16:54:40.195Z,2.53
2023-04-12T16:57:44.166Z,2.20
2023-04-12T17:00:46.891Z,2.85
2023-04-12T17:03:49.508Z,3.10
2023-04-12T17:06:52.370Z,2.10
2023-04-12T17:09:55.959Z,2.37
2023-04-12T17:12:59.610Z,2.40
2023-04-12T17:16:03.953Z,2.25
2023-04-12T17:19:09.213Z,2.22
2023-04-12T17:22:12.940Z,2.62
2023-04-12T17:25:18.213Z,2.72
2023-04-12T17:28:22.432Z,2.95
2023-04-12T17:31:27.063Z,2.70
2023-04-12T17:34:29.507Z,3.20
2023-04-12T17:37:33.873Z,3.83
2023-04-12T17:40:38.341Z,3.33
2023-04-12T17:43:41.084Z,3.08
2023-04-12T17:46:44.241Z,3.00
2023-04-12T17:52:49.489Z,3.42
2023-04-12T17:55:52.281Z,3.70
2023-04-12T17:58:55.200Z,3.70
2023-04-12T18:01:59.971Z,3.58
2023-04-12T18:05:04.715Z,4.40
2023-04-12T18:08:07.292Z,3.22
2023-04-12T18:11:10.964Z,2.47
2023-04-12T18:17:16.238Z,2.95
2023-04-12T18:20:18.868Z,3.30
2023-04-12T18:23:22.032Z,5.22
2023-04-12T18:26:24.975Z,2.97
2023-04-12T18:29:27.659Z,3.37
2023-04-12T18:32:30.500Z,3.70
2023-04-12T18:35:33.294Z,2.78
2023-04-12T18:38:36.420Z,3.30
2023-04-12T18:41:40.983Z,3.55
2023-04-12T18:44:44.823Z,4.72
2023-04-12T18:47:47.753Z,3.60
2023-04-12T18:50:50.474Z,4.47
2023-04-12T18:53:53.540Z,3.65
2023-04-12T18:57:00.662Z,4.32
2023-04-12T19:00:09.996Z,3.92
2023-04-12T19:03:12.594Z,3.22
2023-04-12T19:06:15.848Z,4.00
2023-04-12T19:09:18.299Z,3.15
2023-04-12T19:12:21.516Z,4.30
2023-04-12T19:15:24.104Z,3.78
2023-04-12T19:18:30.107Z,4.72
2023-04-12T19:21:34.160Z,3.17
2023-04-12T19:24:37.635Z,4.10
2023-04-12T19:27:40.284Z,3.72
2023-04-12T19:30:43.711Z,4.10
2023-04-12T19:33:46.499Z,4.72
2023-04-12T19:36:49.718Z,3.70
2023-04-12T19:39:52.561Z,3.92
2023-04-12T19:42:55.748Z,4.57
2023-04-12T19:45:58.314Z,4.07
2023-04-12T19:49:01.157Z,4.12
2023-04-12T19:52:07.518Z,4.93
2023-04-12T19:55:11.352Z,4.50
2023-04-12T19:58:13.998Z,4.28
2023-04-12T20:01:16.792Z,4.63
2023-04-12T20:04:21.652Z,4.40
2023-04-12T20:07:24.341Z,3.80
2023-04-12T20:10:27.304Z,4.32
2023-04-12T20:13:30.832Z,4.47
2023-04-12T20:16:38.302Z,4.55
2023-04-12T20:19:40.697Z,4.62
2023-04-12T20:22:45.861Z,4.43
2023-04-12T20:25:49.742Z,4.40
2023-04-12T20:28:52.387Z,3.60
2023-04-12T20:31:55.651Z,4.62
2023-04-12T20:34:59.017Z,3.80
2023-04-12T20:38:01.471Z,4.43
2023-04-12T20:41:05.213Z,5.37
2023-04-12T20:44:07.563Z,5.03
2023-04-12T20:47:10.555Z,4.68
2023-04-12T20:50:13.045Z,4.32
2023-04-12T20:53:17.480Z,4.72
2023-04-12T20:56:19.971Z,4.85
2023-04-12T20:59:30.298Z,4.62
2023-04-12T21:02:33.173Z,4.12
2023-04-12T21:05:35.921Z,4.30
2023-04-12T21:08:39.188Z,4.70
2023-04-12T21:11:42.539Z,3.40
2023-04-12T21:14:49.960Z,4.03
2023-04-12T21:17:52.692Z,4.25
2023-04-12T21:20:59.250Z,3.78
2023-04-12T21:24:03.834Z,4.37
2023-04-12T21:27:10.032Z,4.28
2023-04-12T21:30:13.780Z,4.53
2023-04-12T21:33:24.514Z,4.32
2023-04-12T21:36:28.602Z,4.78
2023-04-12T21:39:32.434Z,3.80
2023-04-12T21:42:37.160Z,4.85
2023-04-12T21:45:39.641Z,4.30
2023-04-12T21:48:42.840Z,5.63
2023-04-12T21:51:49.203Z,4.90
2023-04-12T21:54:52.274Z,4.78
2023-04-12T21:57:54.614Z,4.22
2023-04-12T22:00:58.261Z,3.80
2023-04-12T22:04:01.504Z,3.97
2023-04-12T22:07:03.998Z,4.87
2023-04-12T22:10:12.034Z,3.15
2023-04-12T22:13:15.753Z,3.35
2023-04-12T22:16:18.400Z,5.12
2023-04-12T22:19:21.166Z,4.17
2023-04-12T22:22:25.182Z,4.20
2023-04-12T22:25:29.459Z,3.55
2023-04-12T22:28:32.250Z,4.00
2023-04-12T22:31:34.836Z,4.05
2023-04-12T22:34:37.451Z,3.30
2023-04-12T22:37:41.208Z,3.33
2023-04-12T22:40:46.891Z,3.97
2023-04-12T22:43:49.934Z,3.75
2023-04-12T22:46:56.910Z,4.30
2023-04-12T22:50:01.716Z,4.37
2023-04-12T22:53:04.669Z,4.22
2023-04-12T22:56:11.198Z,3.80
2023-04-12T22:59:18.678Z,4.12
2023-04-12T23:02:21.361Z,3.92
2023-04-12T23:05:25.073Z,4.50
2023-04-12T23:08:29.047Z,4.35
2023-04-12T23:11:36.155Z,4.30
2023-04-12T23:14:38.621Z,5.18
2023-04-12T23:17:41.924Z,4.45
2023-04-12T23:20:44.846Z,3.75
2023-04-12T23:23:48.443Z,4.47
2023-04-12T23:26:50.877Z,4.07
2023-04-12T23:29:53.641Z,4.07
2023-04-12T23:32:58.279Z,3.95
2023-04-12T23:36:05.476Z,5.05
2023-04-12T23:39:09.457Z,4.15
2023-04-12T23:42:12.326Z,5.07
2023-04-12T23:45:14.876Z,4.72
2023-04-12T23:48:18.213Z,5.47
2023-04-12T23:51:22.004Z,5.60
2023-04-12T23:54:24.765Z,4.40
2023-04-12T23:57:27.281Z,5.00
